createdAt,value
2023-01-22T00:02:37.964Z,0.94
2023-01-22T00:07:44.458Z,0.92
2023-01-22T00:12:50.539Z,0.95
2023-01-22T00:17:56.903Z,0.94
2023-01-22T00:23:03.678Z,0.89
2023-01-22T00:28:10.155Z,0.88
2023-01-22T00:33:16.352Z,0.88
2023-01-22T00:38:22.738Z,0.87
2023-01-22T00:43:29.285Z,0.85
2023-01-22T00:48:35.558Z,0.85
2023-01-22T00:53:42.760Z,0.86
2023-01-22T00:58:49.387Z,0.84
2023-01-22T01:03:55.461Z,0.80
2023-01-22T01:09:01.960Z,0.82
2023-01-22T01:14:08.331Z,0.83
2023-01-22T01:19:14.185Z,0.83
2023-01-22T01:24:20.284Z,0.80
2023-01-22T01:29:26.966Z,0.80
2023-01-22T01:34:33.309Z,0.82
2023-01-22T01:39:39.459Z,0.81
2023-01-22T01:44:45.550Z,0.80
2023-01-22T01:49:53.570Z,0.82
2023-01-22T01:55:00.280Z,0.79
2023-01-22T02:00:10.602Z,0.77
2023-01-22T02:05:21.361Z,0.78
2023-01-22T02:10:27.557Z,0.79
2023-01-22T02:15:36.139Z,0.79
2023-01-22T02:20:54.220Z,0.80
2023-01-22T02:26:00.620Z,0.79
2023-01-22T02:31:06.825Z,0.80
2023-01-22T02:36:13.426Z,0.78
2023-01-22T02:41:19.786Z,0.74
2023-01-22T02:46:30.390Z,0.73
2023-01-22T02:51:36.420Z,0.75
2023-01-22T02:56:42.860Z,0.73
2023-01-22T03:01:49.307Z,0.71
2023-01-22T03:06:55.306Z,0.69
2023-01-22T03:12:02.256Z,0.75
2023-01-22T03:17:29.704Z,0.74
2023-01-22T03:22:38.480Z,0.68
2023-01-22T03:28:04.176Z,0.68
2023-01-22T03:33:13.214Z,0.70
2023-01-22T03:38:19.653Z,0.70
2023-01-22T03:43:25.789Z,0.72
2023-01-22T03:48:32.229Z,0.74
2023-01-22T03:53:38.865Z,0.71
2023-01-22T03:58:45.111Z,0.69
2023-01-22T04:03:54.059Z,0.68
2023-01-22T04:09:02.562Z,0.69
2023-01-22T04:14:16.718Z,0.70
2023-01-22T04:19:32.057Z,0.68
2023-01-22T04:24:58.775Z,0.71
2023-01-22T04:30:06.709Z,0.73
2023-01-22T04:35:13.336Z,0.66
2023-01-22T04:40:28.103Z,0.65
2023-01-22T04:45:34.528Z,0.67
2023-01-22T04:50:40.613Z,0.68
2023-01-22T04:55:46.887Z,0.67
2023-01-22T05:00:55.248Z,0.66
2023-01-22T05:06:06.067Z,0.66
2023-01-22T05:11:14.332Z,0.63
2023-01-22T05:16:31.101Z,0.66
2023-01-22T05:21:36.905Z,0.67
2023-01-22T05:26:44.843Z,0.67
2023-01-22T05:31:59.381Z,0.63
2023-01-22T05:37:20.989Z,0.62
2023-01-22T05:42:27.575Z,0.62
2023-01-22T05:47:33.602Z,0.64
2023-01-22T05:52:53.660Z,0.63
2023-01-22T05:58:00.365Z,0.60
2023-01-22T06:03:06.841Z,0.64
2023-01-22T06:08:21.251Z,0.65
2023-01-22T06:13:30.349Z,0.66
2023-01-22T06:18:39.041Z,0.67
2023-01-22T06:23:45.549Z,0.67
2023-01-22T06:28:55.607Z,0.65
2023-01-22T06:34:03.663Z,0.64
2023-01-22T06:39:10.829Z,0.65
2023-01-22T06:44:37.188Z,0.64
2023-01-22T06:49:43.416Z,0.63
2023-01-22T06:54:51.105Z,0.60
2023-01-22T06:59:57.612Z,0.60
2023-01-22T07:05:03.776Z,0.63
2023-01-22T07:10:11.026Z,0.65
2023-01-22T07:15:16.874Z,0.66
2023-01-22T07:20:24.514Z,0.67
2023-01-22T07:25:30.223Z,0.67
2023-01-22T07:30:36.241Z,0.70
2023-01-22T07:35:42.959Z,0.73
2023-01-22T07:40:49.437Z,0.75
2023-01-22T07:45:58.010Z,0.77
2023-01-22T07:51:06.325Z,0.79
2023-01-22T07:56:13.898Z,0.78
2023-01-22T08:01:20.456Z,0.78
2023-01-22T08:06:26.222Z,0.81
2023-01-22T08:11:32.438Z,0.83
2023-01-22T08:16:39.152Z,0.84
2023-01-22T08:21:45.869Z,0.89
2023-01-22T08:26:51.832Z,0.95
2023-01-22T08:31:57.796Z,0.99
2023-01-22T08:37:04.117Z,1.00
2023-01-22T08:42:10.541Z,1.01
2023-01-22T08:47:18.696Z,1.03
2023-01-22T08:52:25.206Z,1.06
2023-01-22T08:57:31.916Z,1.13
2023-01-22T09:02:38.979Z,1.16
2023-01-22T09:07:45.508Z,1.21
2023-01-22T09:12:52.233Z,1.18
2023-01-22T09:18:01.292Z,1.18
2023-01-22T09:23:15.708Z,1.22
2023-01-22T09:28:40.981Z,1.21
2023-01-22T09:33:47.107Z,1.15
2023-01-22T09:38:52.902Z,1.15
2023-01-22T09:44:04.778Z,1.16
2023-01-22T09:49:16.502Z,1.13
2023-01-22T09:54:23.594Z,1.09
2023-01-22T09:59:35.829Z,1.06
2023-01-22T10:04:44.944Z,1.10
2023-01-22T10:09:54.711Z,1.11
2023-01-22T10:15:00.580Z,1.13
2023-01-22T10:20:12.671Z,1.12
2023-01-22T10:25:19.032Z,1.14
2023-01-22T10:30:27.051Z,1.18
2023-01-22T10:35:42.420Z,1.20
2023-01-22T10:40:54.718Z,1.21
2023-01-22T10:46:06.013Z,1.24
2023-01-22T10:51:16.837Z,1.28
2023-01-22T10:56:32.364Z,1.28
2023-01-22T11:01:39.920Z,1.24
2023-01-22T11:06:50.936Z,1.20
2023-01-22T11:12:04.351Z,1.16
2023-01-22T11:17:19.473Z,1.12
2023-01-22T11:22:33.449Z,1.13
2023-01-22T11:27:51.667Z,1.13
2023-01-22T11:33:07.233Z,1.16
2023-01-22T11:38:25.030Z,1.21
2023-01-22T11:43:55.670Z,1.21
2023-01-22T11:49:13.817Z,1.25
2023-01-22T11:54:33.029Z,1.31
2023-01-22T11:59:51.753Z,1.25
2023-01-22T12:05:21.755Z,1.22
2023-01-22T12:10:54.120Z,1.24
2023-01-22T12:16:15.432Z,1.28
2023-01-22T12:21:35.260Z,1.29
2023-01-22T12:26:48.022Z,1.27
2023-01-22T12:31:59.288Z,1.25
2023-01-22T12:37:07.995Z,1.25
2023-01-22T12:42:24.798Z,1.21
2023-01-22T12:47:40.670Z,1.16
2023-01-22T12:52:57.431Z,1.12
2023-01-22T12:58:07.653Z,1.13
2023-01-22T13:03:32.427Z,1.08
2023-01-22T13:08:42.305Z,1.07
2023-01-22T13:13:53.066Z,1.14
2023-01-22T13:19:00.973Z,1.13
2023-01-22T13:24:15.145Z,1.14
2023-01-22T13:29:26.130Z,1.14
2023-01-22T13:34:33.542Z,1.14
2023-01-22T13:39:39.900Z,1.18
2023-01-22T13:44:49.118Z,1.19
2023-01-22T13:49:55.276Z,1.14
2023-01-22T13:55:07.711Z,1.12
2023-01-22T14:00:26.940Z,1.11
2023-01-22T14:05:35.273Z,1.12
2023-01-22T14:10:42.096Z,1.13
2023-01-22T14:15:57.396Z,1.13
2023-01-22T14:21:04.095Z,1.11
2023-01-22T14:26:10.733Z,1.09
2023-01-22T14:31:16.620Z,1.07
2023-01-22T14:36:22.324Z,1.02
2023-01-22T14:41:28.311Z,1.00
2023-01-22T14:46:34.023Z,1.03
2023-01-22T14:51:39.888Z,1.02
2023-01-22T14:56:45.668Z,0.97
2023-01-22T15:01:51.660Z,0.96
2023-01-22T15:06:57.503Z,0.95
2023-01-22T15:12:03.859Z,0.95
2023-01-22T15:17:09.616Z,0.96
2023-01-22T15:22:15.695Z,1.00
2023-01-22T15:27:22.500Z,0.98
2023-01-22T15:32:28.631Z,0.95
2023-01-22T15:37:34.612Z,0.93
2023-01-22T15:42:40.373Z,0.93
2023-01-22T15:47:46.096Z,0.91
2023-01-22T15:52:57.714Z,0.90
2023-01-22T15:58:03.630Z,0.88
2023-01-22T16:03:09.483Z,0.87
2023-01-22T16:08:15.787Z,0.83
2023-01-22T16:13:21.959Z,0.81
2023-01-22T16:18:27.800Z,0.82
2023-01-22T16:23:35.201Z,0.83
2023-01-22T16:28:41.532Z,0.83
2023-01-22T16:33:51.781Z,0.82
2023-01-22T16:38:57.759Z,0.84
2023-01-22T16:44:09.752Z,0.86
2023-01-22T16:49:17.852Z,0.85
2023-01-22T16:54:30.227Z,0.83
2023-01-22T16:59:37.468Z,0.83
2023-01-22T17:04:43.317Z,0.82
2023-01-22T17:09:50.198Z,0.79
2023-01-22T17:14:56.357Z,0.76
2023-01-22T17:20:02.039Z,0.75
2023-01-22T17:25:09.526Z,0.77
2023-01-22T17:30:16.857Z,0.75
2023-01-22T17:35:22.756Z,0.76
2023-01-22T17:40:29.453Z,0.75
2023-01-22T17:45:38.453Z,0.72
2023-01-22T17:50:44.608Z,0.70
2023-01-22T17:55:50.615Z,0.74
2023-01-22T18:01:00.872Z,0.75
2023-01-22T18:06:08.327Z,0.72
2023-01-22T18:11:15.711Z,0.69
2023-01-22T18:16:21.768Z,0.72
2023-01-22T18:21:28.999Z,0.75
2023-01-22T18:26:35.818Z,0.75
2023-01-22T18:31:42.117Z,0.73
2023-01-22T18:36:48.139Z,0.76
2023-01-22T18:41:54.255Z,0.75
2023-01-22T18:47:02.059Z,0.70
2023-01-22T18:52:07.866Z,0.71
2023-01-22T18:57:13.435Z,0.75
2023-01-22T19:02:21.801Z,0.71
2023-01-22T19:07:27.749Z,0.70
2023-01-22T19:12:34.030Z,0.69
2023-01-22T19:17:40.069Z,0.62
2023-01-22T19:22:46.030Z,0.57
2023-01-22T19:27:51.763Z,0.59
2023-01-22T19:32:58.177Z,0.59
2023-01-22T19:38:03.958Z,0.55
2023-01-22T19:43:09.886Z,0.51
2023-01-22T19:48:15.709Z,0.54
2023-01-22T19:53:21.559Z,0.58
2023-01-22T19:58:28.494Z,0.59
2023-01-22T20:03:34.501Z,0.62
2023-01-22T20:08:40.671Z,0.68
2023-01-22T20:13:47.568Z,0.68
2023-01-22T20:18:54.183Z,0.62
2023-01-22T20:23:59.982Z,0.60
2023-01-22T20:29:06.794Z,0.63
2023-01-22T20:34:12.672Z,0.64
2023-01-22T20:39:19.684Z,0.62
2023-01-22T20:44:25.932Z,0.57
2023-01-22T20:49:33.543Z,0.57
2023-01-22T20:54:50.066Z,0.58
2023-01-22T21:00:08.620Z,0.57
2023-01-22T21:05:15.058Z,0.59
2023-01-22T21:10:21.616Z,0.62
2023-01-22T21:15:27.745Z,0.64
2023-01-22T21:20:34.338Z,0.64
2023-01-22T21:25:41.128Z,0.64
2023-01-22T21:30:46.922Z,0.69
2023-01-22T21:35:52.711Z,0.72
2023-01-22T21:41:07.309Z,0.70
2023-01-22T21:46:25.478Z,0.69
2023-01-22T21:51:33.436Z,0.67
2023-01-22T21:56:40.313Z,0.65
2023-01-22T22:01:47.381Z,0.64
2023-01-22T22:06:57.704Z,0.63
2023-01-22T22:12:05.497Z,0.64
2023-01-22T22:17:11.378Z,0.65
2023-01-22T22:22:17.162Z,0.63
2023-01-22T22:27:22.897Z,0.63
2023-01-22T22:32:29.202Z,0.65
2023-01-22T22:37:35.229Z,0.65
2023-01-22T22:42:41.095Z,0.63
2023-01-22T22:47:46.824Z,0.62
2023-01-22T22:52:52.784Z,0.62
2023-01-22T22:57:58.836Z,0.60
2023-01-22T23:03:04.920Z,0.60
2023-01-22T23:08:11.055Z,0.64
2023-01-22T23:13:16.783Z,0.68
2023-01-22T23:18:26.868Z,0.68
2023-01-22T23:23:33.341Z,0.69
2023-01-22T23:28:39.249Z,0.73
2023-01-22T23:33:45.520Z,0.81
2023-01-22T23:38:51.956Z,0.83
2023-01-22T23:43:57.776Z,0.81
2023-01-22T23:49:04.921Z,0.83
2023-01-22T23:54:11.156Z,0.84
2023-01-22T23:59:16.976Z,0.80
